Time;durP1;ratioP1;P1;durP2;ratioP2;P2;SDS_P1;SDS_P2;PMS_P1;PMS_P2;Temp;Humidity;BMP_temperature;BMP_pressure;BME280_temperature;BME280_humidity;BME280_pressure;Samples;Min_cycle;Max_cycle;Signal;HPM_P1;HPM_P2
2022/08/02 00:01:16;;;;;;;14.52;5.60;;;;;;;19.44;46.53;99544.69;5101460;27;20055;-72
2022/08/02 00:03:40;;;;;;;9.80;5.18;;;;;;;19.38;46.46;99537.25;5101279;27;20038;-70
2022/08/02 00:06:05;;;;;;;8.65;5.30;;;;;;;19.32;47.05;99540.63;5091834;27;20095;-68
2022/08/02 00:08:30;;;;;;;9.68;5.35;;;;;;;19.26;46.99;99535.91;5106345;27;20433;-68
2022/08/02 00:10:55;;;;;;;14.75;4.90;;;;;;;19.25;46.82;99540.47;5088477;27;20080;-71
2022/08/02 00:13:20;;;;;;;10.82;5.50;;;;;;;19.28;46.92;99544.69;5087626;27;20054;-70
2022/08/02 00:15:44;;;;;;;6.97;4.80;;;;;;;19.28;47.04;99545.53;5086392;27;20066;-69
2022/08/02 00:18:09;;;;;;;12.15;5.38;;;;;;;19.26;47.16;99550.25;5107141;27;20072;-69
2022/08/02 00:20:34;;;;;;;10.15;5.10;;;;;;;19.16;47.33;99538.78;5104128;27;20042;-70
2022/08/02 00:22:58;;;;;;;10.52;5.47;;;;;;;19.27;47.38;99540.31;5104445;27;20035;-71
2022/08/02 00:25:23;;;;;;;7.45;4.95;;;;;;;19.26;47.12;99544.84;5085558;27;20044;-70
2022/08/02 00:27:48;;;;;;;7.47;5.65;;;;;;;19.18;47.29;99536.75;5088602;27;20403;-70
2022/08/02 00:30:13;;;;;;;14.70;5.28;;;;;;;19.20;47.33;99540.09;5106438;27;20465;-72
2022/08/02 00:32:38;;;;;;;7.80;5.25;;;;;;;19.25;47.17;99532.34;5071777;27;20034;-71
2022/08/02 00:35:03;;;;;;;6.30;4.78;;;;;;;19.26;47.40;99538.59;5091917;27;20489;-71
2022/08/02 00:37:28;;;;;;;8.45;4.90;;;;;;;19.15;47.47;99535.22;5087589;27;20450;-71
2022/08/02 00:39:53;;;;;;;8.43;5.30;;;;;;;19.18;47.39;99531.34;5072571;27;20129;-71
2022/08/02 00:42:18;;;;;;;8.50;5.38;;;;;;;19.03;47.81;99533.00;5090294;27;20125;-70
2022/08/02 00:44:43;;;;;;;8.60;5.20;;;;;;;19.06;47.98;99543.47;5107632;27;20431;-74
2022/08/02 00:47:08;;;;;;;11.60;5.05;;;;;;;19.14;47.89;99533.53;5087833;27;20430;-71
2022/08/02 00:49:33;;;;;;;6.93;4.95;;;;;;;19.06;47.67;99536.22;5068427;27;20034;-72
2022/08/02 00:51:58;;;;;;;8.02;4.32;;;;;;;18.92;48.27;99541.41;5109926;27;20046;-72
2022/08/02 00:54:23;;;;;;;9.30;4.53;;;;;;;18.96;48.03;99543.59;5105588;27;20043;-73
2022/08/02 00:56:47;;;;;;;8.95;4.78;;;;;;;18.91;48.35;99535.16;5108247;27;20038;-71
2022/08/02 00:59:12;;;;;;;7.35;4.13;;;;;;;18.83;48.26;99527.06;5112298;27;20054;-74
2022/08/02 01:01:37;;;;;;;7.50;4.60;;;;;;;18.78;48.56;99540.19;5086110;27;20039;-72
2022/08/02 01:04:02;;;;;;;6.25;4.50;;;;;;;18.70;48.57;99527.53;5084891;27;20207;-73
2022/08/02 01:06:31;;;;;;;6.07;4.10;;;;;;;18.66;48.81;99534.25;5094373;27;20031;-68
2022/08/02 01:08:56;;;;;;;6.78;4.10;;;;;;;18.62;49.37;99535.59;5094738;27;20038;-70
2022/08/02 01:11:21;;;;;;;10.68;4.68;;;;;;;18.61;50.61;99533.06;5109531;27;20038;-72
2022/08/02 01:13:46;;;;;;;13.23;6.47;;;;;;;18.56;50.70;99536.22;5087982;27;20069;-71
2022/08/02 01:16:18;;;;;;;18.50;6.43;;;;;;;18.51;51.35;99525.88;5088939;27;20504;-72
2022/08/02 01:18:46;;;;;;;17.50;7.13;;;;;;;18.46;51.65;99533.66;5105468;27;20035;-70
2022/08/02 01:21:34;;;;;;;24.90;7.28;;;;;;;18.41;52.11;99537.81;5103811;27;20042;-73
2022/08/02 01:23:59;;;;;;;18.42;6.78;;;;;;;18.32;52.07;99528.84;5087568;27;20043;-70
2022/08/02 01:26:32;;;;;;;14.27;5.18;;;;;;;18.34;51.99;99528.69;5084907;27;20050;-77
2022/08/02 01:29:07;;;;;;;14.60;5.15;;;;;;;18.27;52.31;99525.81;5089847;27;20150;-70
2022/08/02 01:32:15;;;;;;;9.40;4.85;;;;;;;18.31;51.46;99531.72;5104196;27;20634;-67
2022/08/02 01:34:40;;;;;;;21.92;5.72;;;;;;;18.15;52.84;99532.50;5023483;28;20053;-75
2022/08/02 01:37:05;;;;;;;10.98;4.88;;;;;;;18.10;53.34;99532.13;5006291;28;20082;-66
2022/08/02 01:39:35;;;;;;;8.60;4.82;;;;;;;18.09;52.99;99538.50;5009258;28;20076;-70
2022/08/02 01:42:01;;;;;;;7.53;4.15;;;;;;;18.05;53.70;99538.00;5015923;28;20045;-66
2022/08/02 01:44:29;;;;;;;7.78;4.43;;;;;;;18.03;53.35;99540.00;5015447;28;20055;-68
2022/08/02 01:46:59;;;;;;;11.05;4.57;;;;;;;18.00;53.58;99539.47;5015530;28;20055;-69
2022/08/02 01:49:28;;;;;;;8.57;4.78;;;;;;;17.99;53.60;99532.38;5015043;28;20466;-69
2022/08/02 01:54:41;;;;;;;8.15;4.20;;;;;;;18.04;52.67;99540.84;5033900;28;20052;-68
2022/08/02 01:57:10;;;;;;;12.02;5.07;;;;;;;18.04;53.63;99540.84;5035610;28;20457;-71
2022/08/02 01:59:36;;;;;;;7.18;4.80;;;;;;;18.01;54.09;99551.97;5036260;28;20056;-69
2022/08/02 02:02:03;;;;;;;9.00;4.85;;;;;;;18.00;54.27;99551.13;5035666;28;20037;-70
2022/08/02 02:04:30;;;;;;;10.35;4.97;;;;;;;18.04;54.28;99552.50;5030280;27;20397;-68
2022/08/02 02:06:56;;;;;;;10.07;5.05;;;;;;;18.05;54.55;99553.34;5119120;27;20031;-71
2022/08/02 02:09:25;;;;;;;12.20;4.47;;;;;;;18.05;54.08;99556.03;5119175;27;20046;-67
2022/08/02 02:11:50;;;;;;;7.53;4.70;;;;;;;18.06;54.79;99549.63;5118843;27;20039;-66
2022/08/02 02:14:16;;;;;;;7.35;4.82;;;;;;;18.07;54.47;99551.31;5118798;27;20454;-68
2022/08/02 02:16:45;;;;;;;13.10;5.03;;;;;;;18.11;54.70;99550.00;5062434;27;20062;-67
2022/08/02 02:19:15;;;;;;;11.77;5.80;;;;;;;18.13;54.63;99556.94;5098307;27;20043;-68
2022/08/02 02:21:39;;;;;;;10.43;5.28;;;;;;;18.17;53.71;99552.06;5118771;27;20034;-73
2022/08/02 02:24:04;;;;;;;7.80;4.05;;;;;;;18.23;53.57;99558.66;5118318;27;20042;-69
2022/08/02 02:26:31;;;;;;;5.13;3.92;;;;;;;18.30;51.51;99557.84;5118345;27;20034;-71
2022/08/02 02:29:00;;;;;;;9.63;4.72;;;;;;;18.42;54.36;99547.63;5099948;27;20145;-71
2022/08/02 02:31:27;;;;;;;9.13;4.38;;;;;;;18.47;51.60;99548.84;5100259;27;20034;-72
2022/08/02 02:34:00;;;;;;;9.80;4.68;;;;;;;18.63;51.03;99555.31;5118837;27;20061;-72
2022/08/02 02:36:25;;;;;;;9.90;4.32;;;;;;;18.67;52.14;99559.41;5118564;27;20034;-72
2022/08/02 02:38:52;;;;;;;5.47;4.10;;;;;;;18.73;52.62;99569.56;5118376;27;20073;-73
2022/08/02 02:41:20;;;;;;;5.03;4.00;;;;;;;18.77;51.67;99557.41;5102251;27;20043;-65
2022/08/02 02:43:45;;;;;;;8.43;4.65;;;;;;;18.84;50.26;99547.66;5097254;27;20173;-67
2022/08/02 02:46:12;;;;;;;8.63;4.15;;;;;;;18.88;52.45;99554.41;5078571;27;20048;-66
2022/08/02 02:48:37;;;;;;;4.65;4.10;;;;;;;18.90;52.96;99549.69;5079220;27;20066;-66
2022/08/02 02:51:07;;;;;;;9.32;4.65;;;;;;;18.96;53.27;99549.00;5078894;27;20091;-67
2022/08/02 02:53:34;;;;;;;5.78;4.38;;;;;;;19.00;53.51;99544.97;5096248;27;20050;-69
2022/08/02 02:56:00;;;;;;;6.72;4.68;;;;;;;19.11;53.64;99538.41;5096262;27;20047;-75
2022/08/02 02:58:25;;;;;;;8.43;4.40;;;;;;;19.21;52.13;99539.09;5112619;27;20070;-71
2022/08/02 03:03:34;;;;;;;8.60;5.28;;;;;;;19.43;50.79;99535.72;5097557;27;20488;-69
2022/08/02 03:05:59;;;;;;;9.00;4.40;;;;;;;19.55;50.46;99538.97;5067313;27;20563;-69
2022/08/02 03:08:24;;;;;;;7.72;4.50;;;;;;;19.64;50.50;99543.34;5117943;27;20492;-70
2022/08/02 03:10:49;;;;;;;7.93;5.15;;;;;;;19.80;48.57;99545.22;5114133;27;20141;-69
2022/08/02 03:13:16;;;;;;;11.25;4.28;;;;;;;19.86;47.81;99542.66;5096804;27;20481;-68
2022/08/02 03:15:41;;;;;;;5.75;4.13;;;;;;;19.91;47.91;99543.00;5100983;27;20490;-67
2022/08/02 03:18:09;;;;;;;8.60;5.00;;;;;;;19.96;48.59;99547.06;5083626;27;20050;-70
2022/08/02 15:09:54;;;;;;;5.57;3.85;;;;;;;25.18;34.83;99390.34;6173523;22;883992;-76
2022/08/02 15:12:19;;;;;;;5.35;3.85;;;;;;;25.10;35.04;99388.66;6229031;22;20438;-72
2022/08/02 15:14:44;;;;;;;5.13;4.18;;;;;;;25.10;34.75;99385.09;6227888;22;20019;-74
2022/08/02 15:17:10;;;;;;;4.68;3.83;;;;;;;25.09;34.96;99388.88;6228560;22;20047;-74
2022/08/02 15:19:35;;;;;;;8.25;4.30;;;;;;;25.05;35.23;99383.00;6202430;22;20015;-73
2022/08/02 15:21:59;;;;;;;8.50;4.30;;;;;;;25.08;35.18;99387.19;6230109;22;20015;-71
2022/08/02 15:24:24;;;;;;;5.18;3.90;;;;;;;25.05;35.25;99383.00;6228396;22;20014;-73
2022/08/02 15:26:49;;;;;;;7.38;4.35;;;;;;;25.03;35.05;99389.72;6229302;22;20086;-72
2022/08/02 15:29:14;;;;;;;4.93;4.15;;;;;;;25.06;35.16;99389.28;6230203;22;20012;-71
2022/08/02 15:31:39;;;;;;;5.88;4.15;;;;;;;25.14;35.03;99387.22;6229525;22;20087;-69
2022/08/02 15:34:04;;;;;;;4.57;3.72;;;;;;;25.12;35.24;99385.72;6229540;22;20020;-70
2022/08/02 15:36:28;;;;;;;7.55;3.88;;;;;;;25.12;35.08;99380.28;6229380;22;20019;-73
2022/08/02 15:38:53;;;;;;;5.72;4.20;;;;;;;25.08;35.32;99387.19;6228265;22;20016;-72
2022/08/02 15:41:18;;;;;;;7.50;4.28;;;;;;;25.02;35.15;99385.31;6229776;22;20081;-70
2022/08/02 15:43:43;;;;;;;8.98;4.30;;;;;;;25.00;35.46;99382.78;6227719;22;20023;-73
2022/08/02 15:46:08;;;;;;;4.30;3.90;;;;;;;25.00;35.42;99381.94;6228739;22;20061;-73
2022/08/02 15:48:33;;;;;;;8.15;4.15;;;;;;;24.96;35.88;99390.53;6202359;22;20102;-72
2022/08/02 15:50:58;;;;;;;5.55;4.20;;;;;;;24.94;35.57;99379.00;6229061;22;20045;-71
2022/08/02 15:53:23;;;;;;;7.55;4.88;;;;;;;24.93;35.68;99380.06;6230304;22;20039;-72
2022/08/02 15:55:47;;;;;;;4.50;3.78;;;;;;;24.93;35.07;99384.69;6241720;22;20113;-70
2022/08/02 15:58:12;;;;;;;5.10;3.70;;;;;;;24.90;35.48;99380.44;6243782;22;20142;-74
2022/08/02 16:00:37;;;;;;;15.73;5.65;;;;;;;24.87;35.58;99378.13;6251572;22;20046;-71
2022/08/02 16:03:02;;;;;;;9.13;3.95;;;;;;;24.83;35.37;99382.31;6250851;22;20019;-80
2022/08/02 16:05:27;;;;;;;8.43;4.20;;;;;;;24.79;35.42;99381.06;6233780;22;20008;-75
2022/08/02 16:07:52;;;;;;;5.80;3.28;;;;;;;24.82;35.24;99388.00;6224361;22;20023;-74
2022/08/02 16:10:17;;;;;;;4.63;3.70;;;;;;;24.82;35.57;99377.09;6228802;22;20030;-72
2022/08/02 16:12:42;;;;;;;6.43;5.03;;;;;;;24.80;35.37;99390.91;6229339;22;20019;-77
2022/08/02 16:15:07;;;;;;;7.93;4.55;;;;;;;24.77;35.42;99390.47;6227601;22;20012;-73
2022/08/02 16:17:32;;;;;;;4.10;3.70;;;;;;;24.75;35.44;99390.69;6227492;22;20436;-71
2022/08/02 16:19:57;;;;;;;4.38;3.90;;;;;;;24.71;36.14;99388.59;6227396;22;20358;-72
2022/08/02 16:22:23;;;;;;;11.02;5.35;;;;;;;24.64;36.26;99391.28;6227677;22;20029;-73
2022/08/02 16:24:47;;;;;;;6.47;4.10;;;;;;;24.58;36.49;99395.69;6201943;22;20012;-74
2022/08/02 16:27:12;;;;;;;6.68;3.88;;;;;;;24.56;36.00;99391.50;6202051;22;20102;-72
2022/08/02 16:29:37;;;;;;;7.53;3.97;;;;;;;24.56;36.01;99386.03;6229583;22;20016;-69
2022/08/02 16:32:03;;;;;;;5.40;4.13;;;;;;;24.55;36.00;99392.53;6229206;22;20054;-74
2022/08/02 16:34:28;;;;;;;4.00;3.60;;;;;;;24.56;36.06;99395.06;6224225;22;20012;-75
2022/08/02 16:36:52;;;;;;;4.80;4.20;;;;;;;24.56;36.02;99394.22;6224988;22;20024;-73
2022/08/02 16:39:17;;;;;;;10.68;5.70;;;;;;;24.54;36.05;99401.75;6228883;22;20016;-74
2022/08/02 16:41:42;;;;;;;14.63;5.32;;;;;;;24.48;36.20;99391.69;6229082;22;20024;-72
2022/08/02 16:44:08;;;;;;;9.77;4.00;;;;;;;24.48;35.76;99388.97;6229189;22;20094;-72
2022/08/02 16:46:33;;;;;;;5.32;4.10;;;;;;;24.44;36.57;99390.41;6231340;22;20028;-71
2022/08/02 16:48:58;;;;;;;11.70;6.15;;;;;;;24.40;37.95;99405.47;6235522;22;20015;-72
2022/08/02 16:51:25;;;;;;;5.97;4.05;;;;;;;24.34;36.32;99396.25;6202558;22;20023;-72
2022/08/02 16:53:50;;;;;;;5.07;4.50;;;;;;;24.32;36.55;99405.66;6229308;22;20016;-70
2022/08/02 16:56:15;;;;;;;9.40;5.40;;;;;;;24.27;37.11;99410.91;6230238;22;20016;-72
2022/08/02 16:58:39;;;;;;;16.02;6.00;;;;;;;24.22;37.96;99406.03;6228328;22;20047;-71
2022/08/02 17:01:04;;;;;;;6.85;4.72;;;;;;;24.20;36.61;99411.66;6233830;22;20095;-71
2022/08/02 17:03:29;;;;;;;6.22;4.10;;;;;;;24.18;36.80;99410.16;6236681;22;20050;-71
2022/08/02 17:05:53;;;;;;;9.27;4.80;;;;;;;24.12;37.65;99417.28;6233187;22;20011;-70
2022/08/02 17:08:18;;;;;;;9.60;4.63;;;;;;;24.08;36.91;99417.88;6230609;22;20027;-71
2022/08/02 17:10:43;;;;;;;12.20;4.90;;;;;;;24.00;38.37;99427.06;6230090;22;20160;-71
2022/08/02 17:13:08;;;;;;;13.38;5.85;;;;;;;23.93;38.51;99420.72;6228336;22;20047;-70
2022/08/02 17:15:33;;;;;;;13.07;5.05;;;;;;;23.87;38.56;99421.53;6230730;22;20077;-71
2022/08/02 17:18:00;;;;;;;14.50;6.25;;;;;;;23.83;39.03;99414.81;6230844;22;20058;-71
2022/08/02 17:20:24;;;;;;;16.63;7.10;;;;;;;23.76;40.91;99422.94;6231063;22;20020;-73
2022/08/02 17:22:49;;;;;;;20.50;7.75;;;;;;;23.68;41.27;99428.56;6230683;22;20022;-72
2022/08/02 17:25:16;;;;;;;11.50;5.95;;;;;;;23.61;40.03;99426.81;6233516;22;20018;-71
2022/08/02 17:27:44;;;;;;;9.77;5.43;;;;;;;23.65;41.26;99436.25;6235881;22;20039;-76
2022/08/02 17:30:10;;;;;;;19.65;7.70;;;;;;;23.57;41.73;99439.13;6237729;22;20019;-72
2022/08/02 17:32:35;;;;;;;18.20;6.50;;;;;;;23.51;41.33;99436.16;6233220;22;20444;-70
2022/08/02 17:35:00;;;;;;;19.85;13.18;;;;;;;23.49;38.87;99438.19;6233077;22;20078;-71
2022/08/02 17:37:25;;;;;;;15.43;6.80;;;;;;;23.47;40.44;99436.75;6230376;22;20110;-71
2022/08/02 17:39:50;;;;;;;17.95;7.10;;;;;;;23.41;40.67;99434.78;6228722;22;20100;-71
2022/08/02 17:42:14;;;;;;;19.92;8.23;;;;;;;23.35;42.30;99435.59;6226871;22;20451;-72
2022/08/02 17:44:39;;;;;;;21.77;7.85;;;;;;;23.28;40.62;99438.25;6227921;22;20016;-72
2022/08/02 17:47:08;;;;;;;39.88;10.18;;;;;;;23.22;42.61;99446.34;6228040;22;20080;-71
2022/08/02 17:49:33;;;;;;;24.92;9.02;;;;;;;23.11;43.34;99437.69;6201438;22;20027;-71
2022/08/02 17:51:58;;;;;;;27.48;8.55;;;;;;;23.04;43.88;99439.47;6231632;22;20039;-73
2022/08/02 17:54:22;;;;;;;24.52;9.45;;;;;;;22.95;44.92;99437.94;6244533;22;20019;-72
2022/08/02 17:56:48;;;;;;;25.40;7.85;;;;;;;22.87;45.50;99448.09;6237839;22;20358;-72
2022/08/02 17:59:17;;;;;;;27.65;9.02;;;;;;;22.79;46.15;99439.03;6231872;22;20019;-71
2022/08/02 18:01:46;;;;;;;20.75;8.50;;;;;;;22.70;46.56;99442.84;6231635;22;20024;-72
2022/08/02 18:04:12;;;;;;;17.65;8.38;;;;;;;22.59;47.09;99443.34;6230856;22;20458;-72
2022/08/02 18:06:38;;;;;;;23.48;10.15;;;;;;;22.53;47.38;99438.72;6229205;22;20019;-70
2022/08/02 18:09:03;;;;;;;30.08;9.07;;;;;;;22.46;47.93;99443.19;6231312;22;20039;-74
2022/08/02 18:11:27;;;;;;;17.40;7.38;;;;;;;22.41;48.30;99442.94;6231422;22;20098;-71
2022/08/02 18:13:52;;;;;;;26.63;8.75;;;;;;;22.36;49.00;99431.78;6228888;22;20024;-72
2022/08/02 18:16:17;;;;;;;20.75;8.23;;;;;;;22.30;49.11;99438.84;6229560;22;20015;-72
2022/08/02 18:18:42;;;;;;;18.48;8.38;;;;;;;22.25;49.38;99441.28;6229557;22;20517;-73
2022/08/02 18:21:09;;;;;;;20.70;8.23;;;;;;;22.21;49.65;99440.00;6230784;22;20015;-72
2022/08/02 18:23:34;;;;;;;20.33;8.00;;;;;;;22.17;49.74;99444.09;6229118;22;20082;-70
2022/08/02 18:26:00;;;;;;;21.25;8.07;;;;;;;22.14;49.95;99440.91;6230484;22;20016;-71
2022/08/02 18:28:25;;;;;;;26.50;8.10;;;;;;;22.08;50.43;99437.94;6203699;22;20024;-71
2022/08/02 18:30:49;;;;;;;18.25;8.52;;;;;;;22.04;50.96;99431.19;6231008;22;20015;-71
2022/08/02 18:33:14;;;;;;;22.90;7.78;;;;;;;21.99;50.77;99432.78;6230698;22;20015;-71
2022/08/02 18:35:39;;;;;;;22.55;7.60;;;;;;;21.94;51.32;99430.59;6230963;22;20019;-71
2022/08/02 18:38:03;;;;;;;18.27;7.13;;;;;;;21.89;51.47;99434.91;6230939;22;20073;-72
2022/08/02 18:40:28;;;;;;;12.75;7.18;;;;;;;21.83;51.78;99430.22;6229746;22;20043;-74
2022/08/02 18:42:53;;;;;;;22.55;8.70;;;;;;;21.77;51.73;99429.13;6205368;22;20143;-71
2022/08/02 18:45:18;;;;;;;18.05;8.68;;;;;;;21.70;52.28;99436.28;6236110;22;20035;-72
2022/08/02 18:47:44;;;;;;;14.27;7.28;;;;;;;21.64;52.35;99437.91;6233091;22;20094;-71
2022/08/02 18:50:08;;;;;;;11.13;7.55;;;;;;;21.59;52.56;99444.88;6234201;22;20016;-71
2022/08/02 18:52:33;;;;;;;15.30;8.32;;;;;;;21.52;52.94;99444.78;6230867;22;20069;-70
2022/08/02 18:54:58;;;;;;;12.02;7.35;;;;;;;21.48;52.71;99443.47;6231293;22;20011;-72
2022/08/02 18:57:22;;;;;;;16.45;7.75;;;;;;;21.43;53.32;99445.06;6231229;22;20094;-70
2022/08/02 18:59:47;;;;;;;21.38;7.63;;;;;;;21.38;53.67;99441.03;6230072;22;20015;-71
2022/08/02 19:02:12;;;;;;;18.13;8.15;;;;;;;21.32;53.57;99438.22;6233143;22;20094;-71
2022/08/02 19:04:42;;;;;;;23.15;8.07;;;;;;;21.26;53.98;99439.78;6205752;22;20460;-72
2022/08/02 19:07:07;;;;;;;11.43;7.50;;;;;;;21.21;54.44;99436.78;6231883;22;20072;-71
2022/08/02 19:09:31;;;;;;;22.98;7.85;;;;;;;21.15;54.44;99442.88;6234021;22;20106;-73
2022/08/02 19:11:56;;;;;;;18.48;8.25;;;;;;;21.10;54.31;99439.91;6233947;22;20030;-71
2022/08/02 19:14:22;;;;;;;20.25;7.82;;;;;;;21.04;54.54;99446.03;6206746;22;20759;-69
2022/08/02 19:16:47;;;;;;;17.85;7.05;;;;;;;21.00;54.98;99444.69;6228535;22;20050;-69
2022/08/02 19:19:13;;;;;;;18.90;7.03;;;;;;;20.97;54.19;99445.91;6228931;22;20031;-70
2022/08/02 19:21:38;;;;;;;11.90;6.95;;;;;;;20.95;54.89;99457.97;6230487;22;20446;-70
2022/08/02 19:24:03;;;;;;;18.85;8.13;;;;;;;20.92;54.75;99445.59;6228720;22;20458;-69
2022/08/02 19:26:28;;;;;;;11.00;6.57;;;;;;;20.89;54.57;99459.50;6228865;22;20011;-69
2022/08/02 19:28:52;;;;;;;13.38;6.38;;;;;;;20.86;53.97;99454.47;6228783;22;20148;-70
2022/08/02 19:31:18;;;;;;;13.77;6.32;;;;;;;20.82;53.81;99455.00;6230432;22;20037;-70
2022/08/02 19:33:44;;;;;;;17.15;6.13;;;;;;;20.77;54.37;99455.53;6228829;22;20024;-68
2022/08/02 19:36:09;;;;;;;15.15;5.93;;;;;;;20.75;54.36;99446.75;6228698;22;20405;-67
2022/08/02 19:38:34;;;;;;;12.50;6.57;;;;;;;20.72;54.12;99449.81;6223850;22;20395;-66
2022/08/02 19:40:58;;;;;;;11.45;6.35;;;;;;;20.69;54.55;99452.88;6229512;22;20506;-65
2022/08/02 19:43:23;;;;;;;14.38;6.68;;;;;;;20.67;55.02;99455.75;6229574;22;20791;-69
2022/08/02 19:45:49;;;;;;;10.88;6.30;;;;;;;20.64;55.11;99456.13;6229419;22;20019;-69
2022/08/02 19:48:13;;;;;;;13.07;6.22;;;;;;;20.62;55.41;99458.19;6202592;22;20034;-70
2022/08/02 19:50:39;;;;;;;13.68;6.55;;;;;;;20.58;55.59;99456.00;6230161;22;20015;-69
2022/08/02 19:53:04;;;;;;;8.98;6.03;;;;;;;20.55;55.44;99454.47;6202998;22;20027;-68
2022/08/02 19:55:28;;;;;;;16.15;7.10;;;;;;;20.51;55.28;99452.31;6202192;22;20016;-69
2022/08/02 19:57:53;;;;;;;13.23;7.20;;;;;;;20.54;54.36;99458.19;6228550;22;20015;-69
2022/08/02 20:00:18;;;;;;;12.82;7.43;;;;;;;20.59;54.52;99461.22;6228439;22;20012;-68
2022/08/02 20:02:43;;;;;;;13.23;6.47;;;;;;;20.65;54.46;99465.94;6228493;22;20069;-69
2022/08/02 20:05:08;;;;;;;12.93;6.40;;;;;;;20.72;54.49;99457.94;6227819;22;20015;-69
2022/08/02 20:07:33;;;;;;;11.13;6.57;;;;;;;20.75;54.75;99456.75;6229647;22;20103;-70
2022/08/02 20:09:58;;;;;;;12.95;6.65;;;;;;;20.74;54.90;99449.66;6229602;22;20056;-69
2022/08/02 20:12:23;;;;;;;10.27;5.75;;;;;;;20.74;55.22;99450.50;6227883;22;20545;-70
2022/08/02 20:14:48;;;;;;;14.13;6.72;;;;;;;20.71;55.40;99450.00;6229324;22;20016;-69
2022/08/02 20:17:13;;;;;;;12.80;6.25;;;;;;;20.67;55.44;99453.06;6228230;22;20023;-70
2022/08/02 20:19:39;;;;;;;15.07;7.00;;;;;;;20.63;55.00;99459.88;6229258;22;20012;-69
2022/08/02 20:22:05;;;;;;;13.43;6.78;;;;;;;20.59;55.30;99458.53;6229108;22;20095;-69
2022/08/02 20:24:29;;;;;;;12.85;7.18;;;;;;;20.58;55.49;99456.84;6229635;22;20042;-69
2022/08/02 20:26:55;;;;;;;13.90;6.72;;;;;;;20.56;56.15;99469.72;6229512;22;20043;-71
2022/08/02 20:29:20;;;;;;;12.30;6.68;;;;;;;20.57;56.25;99457.84;6226342;22;20019;-73
2022/08/02 20:31:44;;;;;;;17.45;6.65;;;;;;;20.58;56.12;99462.25;6228193;22;20019;-73
2022/08/02 20:34:09;;;;;;;12.27;6.75;;;;;;;20.58;55.88;99466.81;6202425;22;20015;-69
2022/08/02 20:36:34;;;;;;;11.13;6.65;;;;;;;20.56;55.95;99461.59;6228829;22;20008;-71
2022/08/02 20:38:58;;;;;;;13.70;7.20;;;;;;;20.54;55.62;99462.81;6227571;22;20020;-70
2022/08/02 20:41:23;;;;;;;10.43;6.18;;;;;;;20.51;55.95;99465.88;6227557;22;20385;-70
2022/08/02 20:43:49;;;;;;;17.77;7.07;;;;;;;20.45;55.93;99466.56;6225907;22;20414;-71
2022/08/02 20:46:13;;;;;;;16.25;7.00;;;;;;;20.42;56.62;99453.38;6229056;22;20098;-72
2022/08/02 20:48:38;;;;;;;14.18;6.85;;;;;;;20.38;56.65;99452.88;6228066;22;20058;-70
2022/08/02 20:51:03;;;;;;;13.82;6.97;;;;;;;20.35;57.35;99458.66;6229479;22;20026;-71
2022/08/02 20:53:28;;;;;;;12.77;7.65;;;;;;;20.30;57.52;99453.75;6229974;22;20016;-68
2022/08/02 20:55:54;;;;;;;12.32;7.40;;;;;;;20.29;57.52;99468.31;6232690;22;20023;-69
2022/08/02 20:58:19;;;;;;;12.98;7.05;;;;;;;20.25;57.76;99460.69;6235262;22;20023;-69
2022/08/02 21:00:44;;;;;;;16.33;6.45;;;;;;;20.24;57.57;99456.31;6228913;22;20047;-71
2022/08/02 21:03:12;;;;;;;11.75;6.70;;;;;;;20.23;57.50;99460.03;6229170;22;20015;-71
2022/08/02 21:05:38;;;;;;;10.63;6.47;;;;;;;20.20;57.85;99463.09;6226880;22;20094;-71
2022/08/02 21:08:05;;;;;;;11.40;6.57;;;;;;;20.15;58.13;99460.91;6228734;22;20034;-73
2022/08/02 21:10:31;;;;;;;18.98;8.10;;;;;;;20.10;58.45;99457.88;6201899;22;20348;-72
2022/08/02 21:12:56;;;;;;;12.27;6.75;;;;;;;20.10;58.84;99463.28;6228844;22;20030;-71
2022/08/02 21:15:21;;;;;;;17.17;7.43;;;;;;;20.11;58.93;99461.41;6201612;22;20447;-71
2022/08/02 21:17:45;;;;;;;11.60;6.97;;;;;;;20.13;58.79;99462.09;6228592;22;20015;-70
2022/08/02 21:20:11;;;;;;;15.55;7.45;;;;;;;20.16;58.86;99467.16;6228415;22;20026;-71
2022/08/02 21:22:35;;;;;;;18.45;9.40;;;;;;;20.19;58.92;99464.13;6201900;22;20016;-71
2022/08/02 21:25:00;;;;;;;17.23;7.25;;;;;;;20.19;59.00;99473.09;6229369;22;20016;-71
2022/08/02 21:27:25;;;;;;;14.75;8.32;;;;;;;20.17;59.19;99471.56;6230221;22;20374;-66
2022/08/02 21:29:50;;;;;;;17.20;7.65;;;;;;;20.16;59.26;99468.00;6203695;22;20012;-66
2022/08/02 21:32:15;;;;;;;15.80;6.97;;;;;;;20.14;59.36;99463.78;6229379;22;20146;-67
2022/08/02 21:34:39;;;;;;;13.32;7.45;;;;;;;20.12;59.36;99463.13;6230885;22;20644;-67
2022/08/02 21:37:04;;;;;;;18.77;7.70;;;;;;;20.11;59.57;99470.38;6230802;22;20047;-66
2022/08/02 21:39:30;;;;;;;16.50;8.07;;;;;;;20.12;59.44;99477.50;6230923;22;20041;-66
2022/08/02 21:41:55;;;;;;;12.77;7.15;;;;;;;20.11;59.72;99472.25;6230852;22;20059;-66
2022/08/02 21:44:21;;;;;;;13.63;7.03;;;;;;;20.08;59.74;99472.63;6229490;22;20442;-66
2022/08/02 21:46:47;;;;;;;15.68;6.93;;;;;;;20.04;59.65;99476.69;6230783;22;20026;-66
2022/08/02 21:49:13;;;;;;;19.13;8.25;;;;;;;20.01;60.01;99471.59;6204148;22;20031;-67
2022/08/02 21:51:38;;;;;;;13.98;7.68;;;;;;;19.98;60.21;99474.69;6231295;22;20015;-65
2022/08/02 21:54:02;;;;;;;11.70;6.82;;;;;;;19.94;60.56;99485.00;6228112;22;20041;-66
2022/08/02 21:56:27;;;;;;;19.08;8.18;;;;;;;19.91;60.64;99469.09;6228599;22;20427;-65
2022/08/02 21:58:52;;;;;;;17.38;7.60;;;;;;;19.88;60.61;99480.25;6231112;22;20592;-65
2022/08/02 22:01:17;;;;;;;12.55;6.72;;;;;;;19.85;60.73;99473.38;6236497;22;20039;-73
2022/08/02 22:03:42;;;;;;;14.45;8.18;;;;;;;19.84;61.04;99479.78;6240227;22;20026;-66
2022/08/02 22:06:07;;;;;;;13.60;7.05;;;;;;;19.84;61.17;99478.94;6234726;22;20346;-66
2022/08/02 22:08:32;;;;;;;16.95;7.45;;;;;;;19.81;60.98;99479.28;6242544;22;20044;-67
2022/08/02 22:11:02;;;;;;;16.42;8.32;;;;;;;19.78;61.18;99472.34;6229196;22;20102;-65
2022/08/02 22:13:29;;;;;;;17.80;8.02;;;;;;;19.77;61.05;99486.03;6229417;22;20050;-65
2022/08/02 22:15:56;;;;;;;16.10;7.32;;;;;;;19.73;61.30;99484.72;6230689;22;20090;-64
2022/08/02 22:18:21;;;;;;;15.07;7.43;;;;;;;19.71;61.59;99484.03;6229012;22;20513;-64
2022/08/02 22:20:45;;;;;;;16.23;7.63;;;;;;;19.68;62.04;99482.50;6228950;22;20398;-65
2022/08/02 22:23:10;;;;;;;12.60;7.00;;;;;;;19.66;61.72;99484.53;6228597;22;20011;-68
2022/08/02 22:25:36;;;;;;;15.25;7.78;;;;;;;19.65;61.97;99488.25;6230856;22;20016;-70
2022/08/02 22:28:01;;;;;;;16.15;7.80;;;;;;;19.63;62.02;99493.03;6230584;22;20098;-72
2022/08/02 22:30:25;;;;;;;15.15;7.70;;;;;;;19.61;61.85;99489.63;6228702;22;20046;-71
2022/08/02 22:35:33;;;;;;;22.80;8.65;;;;;;;19.56;62.29;99492.84;6234289;22;20015;-71
2022/08/02 22:37:58;;;;;;;13.63;7.30;;;;;;;19.49;61.81;99488.28;6235175;22;20376;-67
2022/08/02 22:40:23;;;;;;;10.57;7.28;;;;;;;19.42;61.06;99496.19;6229377;22;20083;-72
2022/08/02 22:42:48;;;;;;;13.60;7.90;;;;;;;19.38;60.90;99491.31;6203244;22;20403;-72
2022/08/02 22:45:12;;;;;;;15.38;8.23;;;;;;;19.30;60.68;99485.91;6230226;22;20015;-74
2022/08/02 22:47:37;;;;;;;11.73;7.75;;;;;;;19.22;60.69;99490.28;6230444;22;20019;-70
2022/08/02 22:50:02;;;;;;;16.70;8.02;;;;;;;19.20;62.60;99486.91;6231482;22;20510;-78
2022/08/02 22:52:27;;;;;;;13.95;8.38;;;;;;;19.19;64.12;99492.47;6232484;22;20039;-69
2022/08/02 22:54:52;;;;;;;14.23;7.55;;;;;;;19.16;64.86;99488.28;6229526;22;20016;-69
2022/08/02 22:57:18;;;;;;;17.42;7.93;;;;;;;19.15;65.05;99491.97;6233114;22;20065;-67
2022/08/02 22:59:42;;;;;;;13.90;7.03;;;;;;;19.14;65.26;99486.75;6232562;22;20016;-70
2022/08/02 23:02:08;;;;;;;16.17;7.65;;;;;;;19.14;65.42;99490.28;6241190;22;20483;-66
2022/08/02 23:04:33;;;;;;;11.10;7.13;;;;;;;19.15;65.12;99488.44;6244278;22;20077;-70
2022/08/02 23:06:57;;;;;;;16.23;8.00;;;;;;;19.16;64.70;99493.69;6239909;22;20023;-74
2022/08/02 23:09:22;;;;;;;21.58;7.57;;;;;;;19.18;64.50;99494.34;6233005;22;20046;-72
2022/08/02 23:11:47;;;;;;;17.90;8.20;;;;;;;19.21;64.28;99495.84;6234009;22;20165;-72
2022/08/02 23:14:11;;;;;;;15.52;8.52;;;;;;;19.23;64.05;99501.94;6231908;22;20022;-72
2022/08/02 23:22:03;;;;;;;17.83;8.40;;;;;;;19.30;61.98;99507.53;6230985;22;20031;-69